sensor_id;sensor_type;location;lat;lon;timestamp;P1;durP1;ratioP1;P2;durP2;ratioP2
9094;SDS011;4583;49.796;9.902;2022-07-24T00:04:24;8.40;;;6.30;;
9094;SDS011;4583;49.796;9.902;2022-07-24T00:14:26;10.20;;;6.47;;
9094;SDS011;4583;49.796;9.902;2022-07-24T00:24:28;8.17;;;6.40;;
9094;SDS011;4583;49.796;9.902;2022-07-24T00:34:30;9.27;;;6.70;;
9094;SDS011;4583;49.796;9.902;2022-07-24T00:44:32;7.13;;;6.43;;
9094;SDS011;4583;49.796;9.902;2022-07-24T00:54:33;9.43;;;6.20;;
9094;SDS011;4583;49.796;9.902;2022-07-24T01:04:35;8.13;;;6.50;;
9094;SDS011;4583;49.796;9.902;2022-07-24T01:14:37;7.30;;;6.07;;
9094;SDS011;4583;49.796;9.902;2022-07-24T01:24:40;8.50;;;6.50;;
9094;SDS011;4583;49.796;9.902;2022-07-24T01:34:41;9.20;;;6.00;;
9094;SDS011;4583;49.796;9.902;2022-07-24T01:44:44;10.73;;;6.23;;
9094;SDS011;4583;49.796;9.902;2022-07-24T01:54:45;8.90;;;6.50;;
9094;SDS011;4583;49.796;9.902;2022-07-24T02:04:47;6.87;;;6.10;;
9094;SDS011;4583;49.796;9.902;2022-07-24T02:14:49;9.87;;;6.30;;
9094;SDS011;4583;49.796;9.902;2022-07-24T02:24:50;7.57;;;6.17;;
9094;SDS011;4583;49.796;9.902;2022-07-24T02:34:52;9.30;;;6.33;;
9094;SDS011;4583;49.796;9.902;2022-07-24T02:44:54;9.53;;;6.23;;
9094;SDS011;4583;49.796;9.902;2022-07-24T02:54:55;8.90;;;6.20;;
9094;SDS011;4583;49.796;9.902;2022-07-24T03:04:57;7.23;;;6.37;;
9094;SDS011;4583;49.796;9.902;2022-07-24T03:14:59;6.70;;;5.77;;
9094;SDS011;4583;49.796;9.902;2022-07-24T03:25:01;9.67;;;6.20;;
9094;SDS011;4583;49.796;9.902;2022-07-24T03:35:03;6.90;;;5.83;;
9094;SDS011;4583;49.796;9.902;2022-07-24T03:45:05;8.37;;;6.17;;
9094;SDS011;4583;49.796;9.902;2022-07-24T03:55:07;8.00;;;6.53;;
9094;SDS011;4583;49.796;9.902;2022-07-24T04:05:11;9.83;;;6.50;;
9094;SDS011;4583;49.796;9.902;2022-07-24T04:15:14;6.40;;;5.70;;
9094;SDS011;4583;49.796;9.902;2022-07-24T04:25:16;6.60;;;6.00;;
9094;SDS011;4583;49.796;9.902;2022-07-24T04:35:18;8.07;;;6.53;;
9094;SDS011;4583;49.796;9.902;2022-07-24T04:45:20;7.57;;;6.10;;
9094;SDS011;4583;49.796;9.902;2022-07-24T04:55:22;7.13;;;6.00;;
9094;SDS011;4583;49.796;9.902;2022-07-24T05:05:23;11.37;;;6.63;;
9094;SDS011;4583;49.796;9.902;2022-07-24T05:15:25;8.67;;;6.80;;
9094;SDS011;4583;49.796;9.902;2022-07-24T05:25:27;7.73;;;6.03;;
9094;SDS011;4583;49.796;9.902;2022-07-24T05:35:29;6.80;;;5.80;;
9094;SDS011;4583;49.796;9.902;2022-07-24T05:45:30;7.53;;;5.87;;
9094;SDS011;4583;49.796;9.902;2022-07-24T05:55:32;10.77;;;7.10;;
9094;SDS011;4583;49.796;9.902;2022-07-24T06:05:34;6.93;;;5.53;;
9094;SDS011;4583;49.796;9.902;2022-07-24T06:15:35;7.63;;;5.33;;
9094;SDS011;4583;49.796;9.902;2022-07-24T06:25:41;7.23;;;5.37;;
9094;SDS011;4583;49.796;9.902;2022-07-24T06:35:43;8.60;;;5.50;;
9094;SDS011;4583;49.796;9.902;2022-07-24T06:45:44;6.07;;;4.97;;
9094;SDS011;4583;49.796;9.902;2022-07-24T06:55:46;5.20;;;4.70;;
9094;SDS011;4583;49.796;9.902;2022-07-24T07:05:48;7.77;;;4.90;;
9094;SDS011;4583;49.796;9.902;2022-07-24T07:15:50;7.53;;;5.53;;
9094;SDS011;4583;49.796;9.902;2022-07-24T07:25:52;6.33;;;5.23;;
9094;SDS011;4583;49.796;9.902;2022-07-24T07:35:55;5.90;;;4.90;;
9094;SDS011;4583;49.796;9.902;2022-07-24T07:45:57;5.63;;;5.13;;
9094;SDS011;4583;49.796;9.902;2022-07-24T07:55:59;7.53;;;6.70;;
9094;SDS011;4583;49.796;9.902;2022-07-24T08:06:02;7.63;;;6.10;;
9094;SDS011;4583;49.796;9.902;2022-07-24T08:16:14;8.40;;;6.13;;
9094;SDS011;4583;49.796;9.902;2022-07-24T08:26:16;10.03;;;6.83;;
9094;SDS011;4583;49.796;9.902;2022-07-24T08:36:18;8.43;;;6.13;;
9094;SDS011;4583;49.796;9.902;2022-07-24T08:46:20;7.87;;;6.20;;
9094;SDS011;4583;49.796;9.902;2022-07-24T08:56:22;7.47;;;6.07;;
9094;SDS011;4583;49.796;9.902;2022-07-24T09:06:25;7.07;;;5.70;;
9094;SDS011;4583;49.796;9.902;2022-07-24T09:16:27;6.67;;;5.20;;
9094;SDS011;4583;49.796;9.902;2022-07-24T09:26:47;6.37;;;5.47;;
9094;SDS011;4583;49.796;9.902;2022-07-24T09:37:01;7.50;;;5.70;;
9094;SDS011;4583;49.796;9.902;2022-07-24T09:47:09;5.97;;;5.07;;
9094;SDS011;4583;49.796;9.902;2022-07-24T10:07:27;8.63;;;5.53;;
9094;SDS011;4583;49.796;9.902;2022-07-24T10:17:46;8.73;;;7.40;;
9094;SDS011;4583;49.796;9.902;2022-07-24T10:28:02;8.73;;;6.87;;
9094;SDS011;4583;49.796;9.902;2022-07-24T10:38:21;8.60;;;5.70;;
9094;SDS011;4583;49.796;9.902;2022-07-24T10:48:31;7.37;;;6.57;;
9094;SDS011;4583;49.796;9.902;2022-07-24T10:58:50;6.73;;;5.73;;
9094;SDS011;4583;49.796;9.902;2022-07-24T11:09:10;6.27;;;5.33;;
9094;SDS011;4583;49.796;9.902;2022-07-24T11:29:18;7.53;;;5.53;;
9094;SDS011;4583;49.796;9.902;2022-07-24T11:39:34;8.38;;;5.55;;
9094;SDS011;4583;49.796;9.902;2022-07-24T11:49:42;7.28;;;5.85;;
9094;SDS011;4583;49.796;9.902;2022-07-24T11:59:55;5.95;;;5.35;;
9094;SDS011;4583;49.796;9.902;2022-07-24T12:09:57;7.65;;;5.00;;
9094;SDS011;4583;49.796;9.902;2022-07-24T12:20:01;9.55;;;5.78;;
9094;SDS011;4583;49.796;9.902;2022-07-24T12:30:50;7.43;;;5.20;;
9094;SDS011;4583;49.796;9.902;2022-07-24T12:40:34;10.52;;;6.28;;
9094;SDS011;4583;49.796;9.902;2022-07-24T12:50:37;8.73;;;5.70;;
9094;SDS011;4583;49.796;9.902;2022-07-24T13:00:57;7.93;;;5.57;;
9094;SDS011;4583;49.796;9.902;2022-07-24T13:11:00;7.35;;;4.90;;
9094;SDS011;4583;49.796;9.902;2022-07-24T13:21:02;9.38;;;5.55;;
9094;SDS011;4583;49.796;9.902;2022-07-24T13:31:03;7.15;;;5.65;;
9094;SDS011;4583;49.796;9.902;2022-07-24T13:41:06;6.20;;;4.95;;
9094;SDS011;4583;49.796;9.902;2022-07-24T13:51:08;6.22;;;5.30;;
9094;SDS011;4583;49.796;9.902;2022-07-24T14:01:11;8.38;;;5.15;;
9094;SDS011;4583;49.796;9.902;2022-07-24T14:11:14;7.18;;;5.82;;
9094;SDS011;4583;49.796;9.902;2022-07-24T14:21:16;8.43;;;5.60;;
9094;SDS011;4583;49.796;9.902;2022-07-24T14:31:17;9.15;;;5.53;;
9094;SDS011;4583;49.796;9.902;2022-07-24T14:41:19;5.47;;;4.97;;
9094;SDS011;4583;49.796;9.902;2022-07-24T14:51:21;6.03;;;5.38;;
9094;SDS011;4583;49.796;9.902;2022-07-24T15:01:23;7.18;;;5.05;;
9094;SDS011;4583;49.796;9.902;2022-07-24T15:11:25;5.65;;;5.07;;
9094;SDS011;4583;49.796;9.902;2022-07-24T15:21:27;6.90;;;5.32;;
9094;SDS011;4583;49.796;9.902;2022-07-24T15:31:28;6.32;;;5.72;;
9094;SDS011;4583;49.796;9.902;2022-07-24T15:41:31;5.13;;;3.97;;
9094;SDS011;4583;49.796;9.902;2022-07-24T15:51:33;5.18;;;4.60;;
9094;SDS011;4583;49.796;9.902;2022-07-24T16:01:35;20.02;;;5.97;;
9094;SDS011;4583;49.796;9.902;2022-07-24T16:11:46;9.63;;;6.38;;
9094;SDS011;4583;49.796;9.902;2022-07-24T16:21:53;5.90;;;5.40;;
9094;SDS011;4583;49.796;9.902;2022-07-24T16:31:55;5.68;;;5.18;;
9094;SDS011;4583;49.796;9.902;2022-07-24T16:41:57;6.60;;;5.90;;
9094;SDS011;4583;49.796;9.902;2022-07-24T16:51:59;7.78;;;5.35;;
9094;SDS011;4583;49.796;9.902;2022-07-24T17:02:01;6.22;;;5.32;;
9094;SDS011;4583;49.796;9.902;2022-07-24T17:12:03;5.82;;;5.13;;
9094;SDS011;4583;49.796;9.902;2022-07-24T17:22:22;5.82;;;5.22;;
9094;SDS011;4583;49.796;9.902;2022-07-24T17:32:24;11.27;;;5.22;;
9094;SDS011;4583;49.796;9.902;2022-07-24T17:42:26;6.85;;;5.55;;
9094;SDS011;4583;49.796;9.902;2022-07-24T17:52:28;6.28;;;5.30;;
9094;SDS011;4583;49.796;9.902;2022-07-24T18:02:30;4.90;;;4.47;;
9094;SDS011;4583;49.796;9.902;2022-07-24T18:12:31;5.40;;;4.53;;
9094;SDS011;4583;49.796;9.902;2022-07-24T18:22:34;5.35;;;4.38;;
9094;SDS011;4583;49.796;9.902;2022-07-24T18:32:36;6.50;;;4.25;;
9094;SDS011;4583;49.796;9.902;2022-07-24T18:42:39;5.13;;;4.60;;
9094;SDS011;4583;49.796;9.902;2022-07-24T18:52:41;5.00;;;4.50;;
9094;SDS011;4583;49.796;9.902;2022-07-24T19:02:43;7.15;;;5.05;;
9094;SDS011;4583;49.796;9.902;2022-07-24T19:12:45;5.97;;;5.05;;
9094;SDS011;4583;49.796;9.902;2022-07-24T19:22:47;8.37;;;4.87;;
9094;SDS011;4583;49.796;9.902;2022-07-24T19:32:49;5.63;;;5.07;;
9094;SDS011;4583;49.796;9.902;2022-07-24T19:42:50;6.30;;;4.87;;
9094;SDS011;4583;49.796;9.902;2022-07-24T19:52:52;8.67;;;5.60;;
9094;SDS011;4583;49.796;9.902;2022-07-24T20:02:54;6.20;;;5.43;;
9094;SDS011;4583;49.796;9.902;2022-07-24T20:12:56;8.77;;;5.80;;
9094;SDS011;4583;49.796;9.902;2022-07-24T20:22:57;8.57;;;5.90;;
9094;SDS011;4583;49.796;9.902;2022-07-24T20:32:59;9.80;;;5.97;;
9094;SDS011;4583;49.796;9.902;2022-07-24T20:43:01;7.23;;;6.10;;
9094;SDS011;4583;49.796;9.902;2022-07-24T20:53:03;7.30;;;6.27;;
9094;SDS011;4583;49.796;9.902;2022-07-24T21:03:06;9.43;;;6.47;;
9094;SDS011;4583;49.796;9.902;2022-07-24T21:13:07;8.10;;;6.60;;
9094;SDS011;4583;49.796;9.902;2022-07-24T21:23:09;8.07;;;6.60;;
9094;SDS011;4583;49.796;9.902;2022-07-24T21:33:11;8.93;;;7.20;;
9094;SDS011;4583;49.796;9.902;2022-07-24T21:43:13;7.40;;;6.40;;
9094;SDS011;4583;49.796;9.902;2022-07-24T21:53:14;8.23;;;6.47;;
9094;SDS011;4583;49.796;9.902;2022-07-24T22:03:16;8.13;;;6.73;;
9094;SDS011;4583;49.796;9.902;2022-07-24T22:13:18;8.37;;;7.20;;
9094;SDS011;4583;49.796;9.902;2022-07-24T22:23:20;18.13;;;6.60;;
9094;SDS011;4583;49.796;9.902;2022-07-24T22:33:21;8.13;;;6.90;;
9094;SDS011;4583;49.796;9.902;2022-07-24T22:43:24;8.07;;;7.10;;
9094;SDS011;4583;49.796;9.902;2022-07-24T22:53:26;8.43;;;7.13;;
9094;SDS011;4583;49.796;9.902;2022-07-24T23:03:28;8.03;;;6.47;;
9094;SDS011;4583;49.796;9.902;2022-07-24T23:13:30;7.97;;;6.83;;
9094;SDS011;4583;49.796;9.902;2022-07-24T23:23:32;7.87;;;7.07;;
9094;SDS011;4583;49.796;9.902;2022-07-24T23:33:34;7.90;;;6.90;;
9094;SDS011;4583;49.796;9.902;2022-07-24T23:43:35;7.73;;;6.70;;
9094;SDS011;4583;49.796;9.902;2022-07-24T23:53:37;8.00;;;6.97;;
